createdAt,value
2023-04-22T00:00:10.160Z,99486.53
2023-04-22T00:02:38.905Z,99479.28
2023-04-22T00:05:07.977Z,99476.19
2023-04-22T00:07:36.092Z,99484.50
2023-04-22T00:10:04.308Z,99480.78
2023-04-22T00:12:32.274Z,99485.78
2023-04-22T00:15:01.818Z,99487.03
2023-04-22T00:17:29.823Z,99486.47
2023-04-22T00:19:57.826Z,99486.22
2023-04-22T00:22:25.740Z,99488.50
2023-04-22T00:24:53.662Z,99486.66
2023-04-22T00:27:21.601Z,99491.56
2023-04-22T00:29:49.665Z,99491.88
2023-04-22T00:32:19.962Z,99490.88
2023-04-22T00:34:47.895Z,99498.81
2023-04-22T00:37:15.804Z,99492.16
2023-04-22T00:39:43.851Z,99500.69
2023-04-22T00:42:11.794Z,99504.53
2023-04-22T00:44:39.770Z,99499.97
2023-04-22T00:47:07.838Z,99500.38
2023-04-22T00:49:37.878Z,99505.66
2023-04-22T00:52:06.889Z,99499.03
2023-04-22T00:54:35.412Z,99503.94
2023-04-22T00:57:04.000Z,99505.97
2023-04-22T00:59:31.962Z,99504.91
2023-04-22T01:01:59.886Z,99503.41
2023-04-22T01:04:28.056Z,99505.09
2023-04-22T01:06:57.374Z,99505.25
2023-04-22T01:09:25.334Z,99510.94
2023-04-22T01:11:53.277Z,99506.38
2023-04-22T01:14:21.164Z,99502.84
2023-04-22T01:16:49.242Z,99512.13
2023-04-22T01:19:17.231Z,99518.28
2023-04-22T01:21:46.124Z,99503.81
2023-04-22T01:24:15.429Z,99503.16
2023-04-22T01:26:43.366Z,99504.66
2023-04-22T01:29:11.272Z,99503.16
2023-04-22T01:31:39.380Z,99506.59
2023-04-22T01:34:07.341Z,99502.16
2023-04-22T01:36:35.340Z,99513.88
2023-04-22T01:39:03.313Z,99506.47
2023-04-22T01:41:32.753Z,99500.34
2023-04-22T01:44:00.720Z,99500.81
2023-04-22T01:46:28.818Z,99506.88
2023-04-22T01:48:56.766Z,99498.72
2023-04-22T01:51:24.700Z,99469.75
2023-04-22T01:53:52.675Z,99500.88
2023-04-22T01:56:21.453Z,99498.28
2023-04-22T01:58:51.019Z,99500.22
2023-04-22T02:01:18.986Z,99492.72
2023-04-22T02:03:47.078Z,99503.72
2023-04-22T02:06:15.062Z,99497.41
2023-04-22T02:08:43.015Z,99495.63
2023-04-22T02:11:11.050Z,99508.28
2023-04-22T02:13:39.131Z,99497.44
2023-04-22T02:16:09.433Z,99494.81
2023-04-22T02:18:37.496Z,99494.22
2023-04-22T02:21:05.556Z,99489.56
2023-04-22T02:23:33.534Z,99490.88
2023-04-22T02:26:01.637Z,99499.28
2023-04-22T02:28:29.561Z,99504.72
2023-04-22T02:30:57.537Z,99510.44
2023-04-22T02:33:26.868Z,99514.50
2023-04-22T02:35:54.834Z,99513.81
2023-04-22T02:38:22.756Z,99511.13
2023-04-22T02:40:50.672Z,99513.53
2023-04-22T02:43:18.635Z,99518.41
2023-04-22T02:45:48.621Z,99519.59
2023-04-22T02:48:16.551Z,99513.38
2023-04-22T02:50:45.916Z,99515.22
2023-04-22T02:53:13.843Z,99521.97
2023-04-22T02:55:42.331Z,99529.66
2023-04-22T02:58:10.670Z,99524.09
2023-04-22T03:00:38.686Z,99531.63
2023-04-22T03:03:06.903Z,99528.19
2023-04-22T03:05:34.975Z,99532.19
2023-04-22T03:08:04.291Z,99529.16
2023-04-22T03:10:32.502Z,99530.34
2023-04-22T03:13:00.512Z,99525.16
2023-04-22T03:15:28.473Z,99528.19
2023-04-22T03:17:56.496Z,99535.59
2023-04-22T03:20:24.454Z,99539.75
2023-04-22T03:22:52.327Z,99541.25
2023-04-22T03:25:21.701Z,99548.13
2023-04-22T03:27:49.662Z,99547.28
2023-04-22T03:30:17.642Z,99550.25
2023-04-22T03:32:45.636Z,99554.94
2023-04-22T03:35:13.771Z,99557.56
2023-04-22T03:37:42.022Z,99557.84
2023-04-22T03:40:13.491Z,99551.84
2023-04-22T03:42:43.033Z,99565.47
2023-04-22T03:45:11.739Z,99563.41
2023-04-22T03:47:39.705Z,99563.63
2023-04-22T03:50:08.459Z,99561.22
2023-04-22T03:52:36.428Z,99557.63
2023-04-22T03:55:04.519Z,99563.75
2023-04-22T03:57:32.496Z,99564.53
2023-04-22T04:00:01.819Z,99555.91
2023-04-22T04:02:29.874Z,99557.19
2023-04-22T04:04:58.229Z,99557.56
2023-04-22T04:07:26.423Z,99557.09
2023-04-22T04:09:54.370Z,99562.38
2023-04-22T04:12:22.316Z,99570.56
2023-04-22T04:14:50.231Z,99574.50
2023-04-22T04:17:19.604Z,99580.09
2023-04-22T04:19:47.565Z,99588.81
2023-04-22T04:22:15.495Z,99584.72
2023-04-22T04:24:43.972Z,99590.56
2023-04-22T04:27:11.973Z,99591.03
2023-04-22T04:29:41.580Z,99595.66
2023-04-22T04:32:10.068Z,99595.28
2023-04-22T04:34:39.515Z,99598.88
2023-04-22T04:37:07.500Z,99600.75
2023-04-22T04:39:35.470Z,99595.91
2023-04-22T04:42:04.044Z,99603.78
2023-04-22T04:44:32.205Z,99598.00
2023-04-22T04:47:00.189Z,99597.38
2023-04-22T04:49:30.738Z,99601.34
2023-04-22T04:52:00.179Z,99605.53
2023-04-22T04:54:28.160Z,99598.81
2023-04-22T04:56:57.384Z,99594.59
2023-04-22T04:59:25.379Z,99601.78
2023-04-22T05:01:53.438Z,99595.28
2023-04-22T05:04:21.985Z,99603.25
2023-04-22T05:06:50.175Z,99601.88
2023-04-22T05:09:19.684Z,99609.88
2023-04-22T05:11:47.610Z,99615.16
2023-04-22T05:14:15.590Z,99615.63
2023-04-22T05:16:43.633Z,99616.03
2023-04-22T05:19:11.548Z,99611.91
2023-04-22T05:21:39.470Z,99604.16
2023-04-22T05:24:07.857Z,99603.44
2023-04-22T05:26:37.260Z,99605.78
2023-04-22T05:29:05.386Z,99604.44
2023-04-22T05:31:33.944Z,99603.88
2023-04-22T05:34:01.927Z,99607.41
2023-04-22T05:36:31.603Z,99618.38
2023-04-22T05:38:59.594Z,99622.72
2023-04-22T05:41:27.498Z,99619.41
2023-04-22T05:43:56.779Z,99626.47
2023-04-22T05:46:24.752Z,99630.22
2023-04-22T05:48:52.737Z,99635.38
2023-04-22T05:51:20.694Z,99642.13
2023-04-22T05:53:48.617Z,99639.63
2023-04-22T05:56:16.528Z,99642.84
2023-04-22T05:58:44.445Z,99644.09
2023-04-22T06:01:13.807Z,99651.59
2023-04-22T06:03:42.060Z,99647.44
2023-04-22T06:06:10.348Z,99658.75
2023-04-22T06:08:38.312Z,99667.13
2023-04-22T06:11:06.378Z,99673.03
2023-04-22T06:13:34.331Z,99677.78
2023-04-22T06:16:02.630Z,99680.41
2023-04-22T06:18:32.469Z,99677.25
2023-04-22T06:21:00.423Z,99675.75
2023-04-22T06:23:28.402Z,99679.94
2023-04-22T06:25:58.487Z,99679.25
2023-04-22T06:28:26.487Z,99692.25
2023-04-22T06:30:54.480Z,99682.31
2023-04-22T06:33:22.470Z,99683.22
2023-04-22T06:35:51.797Z,99684.09
2023-04-22T06:38:19.736Z,99683.34
2023-04-22T06:40:47.714Z,99683.78
2023-04-22T06:43:15.642Z,99678.03
2023-04-22T06:45:43.599Z,99693.03
2023-04-22T06:48:11.539Z,99689.53
2023-04-22T06:50:39.441Z,99688.72
2023-04-22T06:53:09.990Z,99692.69
2023-04-22T06:55:37.931Z,99691.00
2023-04-22T06:58:05.897Z,99677.91
2023-04-22T07:00:35.004Z,99673.72
2023-04-22T07:03:03.055Z,99683.91
2023-04-22T07:05:31.072Z,99693.47
2023-04-22T07:07:58.978Z,99691.22
2023-04-22T07:10:28.274Z,99686.38
2023-04-22T07:12:56.191Z,99692.53
2023-04-22T07:15:24.127Z,99689.59
2023-04-22T07:17:52.067Z,99701.28
2023-04-22T07:20:20.071Z,99702.22
2023-04-22T07:22:48.050Z,99699.00
2023-04-22T07:25:16.043Z,99708.53
2023-04-22T07:27:45.349Z,99707.44
2023-04-22T07:30:14.075Z,99714.25
2023-04-22T07:32:42.080Z,99716.97
2023-04-22T07:35:10.300Z,99722.59
2023-04-22T07:37:38.331Z,99722.19
2023-04-22T07:40:11.679Z,99721.47
2023-04-22T07:42:39.886Z,99726.84
2023-04-22T07:45:10.089Z,99721.16
2023-04-22T07:47:38.087Z,99723.72
2023-04-22T07:50:07.145Z,99725.84
2023-04-22T07:52:35.099Z,99729.81
2023-04-22T07:55:03.076Z,99728.16
2023-04-22T07:57:31.016Z,99731.13
2023-04-22T07:59:59.254Z,99699.38
2023-04-22T08:02:28.693Z,99734.63
2023-04-22T08:04:56.749Z,99738.44
2023-04-22T08:09:56.701Z,99736.19
2023-04-22T08:12:24.782Z,99736.81
2023-04-22T08:14:52.734Z,99742.25
2023-04-22T08:17:22.159Z,99743.69
2023-04-22T08:19:51.609Z,99750.16
2023-04-22T08:22:19.579Z,99753.09
2023-04-22T08:24:47.554Z,99752.44
2023-04-22T08:27:15.487Z,99754.72
2023-04-22T08:29:43.583Z,99758.66
2023-04-22T08:32:11.721Z,99745.94
2023-04-22T08:34:40.374Z,99744.41
2023-04-22T08:37:10.161Z,99743.38
2023-04-22T08:39:38.362Z,99737.09
2023-04-22T08:42:06.654Z,99740.81
2023-04-22T08:44:35.507Z,99743.63
2023-04-22T08:47:04.003Z,99737.84
2023-04-22T08:49:32.023Z,99733.63
2023-04-22T08:52:00.006Z,99737.38
2023-04-22T08:54:29.420Z,99741.47
2023-04-22T08:56:57.392Z,99734.34
2023-04-22T08:59:25.364Z,99741.88
2023-04-22T09:01:54.298Z,99747.88
2023-04-22T09:04:22.418Z,99746.28
2023-04-22T09:06:50.445Z,99752.81
2023-04-22T09:09:18.418Z,99754.38
2023-04-22T09:11:47.699Z,99761.56
2023-04-22T09:14:15.647Z,99758.44
2023-04-22T09:16:44.065Z,99758.69
2023-04-22T09:19:15.408Z,99766.16
2023-04-22T09:21:43.650Z,99760.81
2023-04-22T09:24:12.417Z,99768.09
2023-04-22T09:26:40.887Z,99767.63
2023-04-22T09:29:14.343Z,99776.50
2023-04-22T09:31:42.456Z,99771.97
2023-04-22T09:34:10.500Z,99761.78
2023-04-22T09:36:38.545Z,99767.63
2023-04-22T09:39:08.214Z,99760.19
2023-04-22T09:41:37.324Z,99748.44
2023-04-22T09:44:05.726Z,99746.25
2023-04-22T09:46:35.120Z,99748.31
2023-04-22T09:49:03.117Z,99747.59
2023-04-22T09:51:31.999Z,99741.38
2023-04-22T09:54:01.136Z,99739.25
2023-04-22T09:56:42.432Z,99727.38
2023-04-22T09:59:10.556Z,99728.16
2023-04-22T10:01:41.213Z,99722.28
2023-04-22T10:04:09.955Z,99715.81
2023-04-22T10:06:38.392Z,99714.06
2023-04-22T10:09:09.296Z,99710.63
2023-04-22T10:11:37.716Z,99701.25
2023-04-22T10:14:05.700Z,99703.66
2023-04-22T10:16:34.262Z,99703.00
2023-04-22T10:19:04.568Z,99702.41
2023-04-22T10:21:32.618Z,99702.19
2023-04-22T10:24:00.837Z,99701.50
2023-04-22T10:26:49.311Z,99702.19
2023-04-22T10:29:17.975Z,99697.34
2023-04-22T10:31:46.589Z,99703.19
2023-04-22T10:34:16.280Z,99700.53
2023-04-22T10:36:57.459Z,99707.06
2023-04-22T10:39:25.548Z,99706.78
2023-04-22T10:41:54.964Z,99700.59
2023-04-22T10:44:23.238Z,99699.72
2023-04-22T10:46:58.651Z,99696.25
2023-04-22T10:49:28.156Z,99700.25
2023-04-22T10:51:58.455Z,99702.16
2023-04-22T10:54:57.840Z,99699.94
2023-04-22T10:57:31.225Z,99702.16
2023-04-22T11:00:00.438Z,99705.56
2023-04-22T11:02:28.485Z,99703.38
2023-04-22T11:05:22.926Z,99707.25
2023-04-22T11:07:54.384Z,99702.47
2023-04-22T11:10:33.056Z,99713.84
2023-04-22T11:13:02.086Z,99717.03
2023-04-22T11:15:30.540Z,99717.22
2023-04-22T11:17:58.611Z,99730.94
2023-04-22T11:20:28.555Z,99731.84
2023-04-22T11:22:57.074Z,99741.66
2023-04-22T11:25:25.373Z,99753.41
2023-04-22T11:27:53.507Z,99754.47
2023-04-22T11:30:21.977Z,99770.16
2023-04-22T11:32:50.495Z,99765.84
2023-04-22T11:35:20.159Z,99748.91
2023-04-22T11:37:50.223Z,99763.09
2023-04-22T11:40:29.057Z,99751.66
2023-04-22T11:42:58.510Z,99732.34
2023-04-22T11:45:26.742Z,99744.88
2023-04-22T11:47:55.377Z,99736.09
2023-04-22T11:50:24.594Z,99732.06
2023-04-22T11:52:54.627Z,99734.78
2023-04-22T11:55:23.836Z,99746.31
2023-04-22T11:57:56.422Z,99742.06
2023-04-22T12:00:24.820Z,99736.78
2023-04-22T12:03:00.412Z,99737.63
2023-04-22T12:05:39.277Z,99725.06
2023-04-22T12:08:12.055Z,99723.16
2023-04-22T12:10:43.963Z,99703.63
2023-04-22T12:13:12.641Z,99726.41
2023-04-22T12:15:42.334Z,99720.31
2023-04-22T12:18:10.497Z,99709.09
2023-04-22T12:20:39.903Z,99708.28
2023-04-22T12:23:14.591Z,99701.44
2023-04-22T12:25:43.077Z,99701.13
2023-04-22T12:28:11.439Z,99698.38
2023-04-22T12:30:39.377Z,99700.34
2023-04-22T12:33:07.579Z,99690.09
2023-04-22T12:35:35.656Z,99695.66
2023-04-22T12:38:03.630Z,99690.69
2023-04-22T12:40:33.004Z,99676.13
2023-04-22T12:43:01.229Z,99682.25
2023-04-22T12:45:29.214Z,99679.06
2023-04-22T12:47:58.029Z,99678.44
2023-04-22T12:50:26.044Z,99672.94
2023-04-22T12:52:54.009Z,99673.53
2023-04-22T12:55:22.280Z,99667.16
2023-04-22T12:57:52.057Z,99665.84
2023-04-22T13:00:20.051Z,99661.03
2023-04-22T13:02:48.937Z,99660.75
2023-04-22T13:05:17.115Z,99667.38
2023-04-22T13:07:46.908Z,99665.22
2023-04-22T13:10:22.915Z,99662.66
2023-04-22T13:12:52.642Z,99673.75
2023-04-22T13:15:21.497Z,99677.16
2023-04-22T13:17:51.017Z,99678.31
2023-04-22T13:20:19.548Z,99672.19
2023-04-22T13:22:48.138Z,99664.72
2023-04-22T13:25:16.053Z,99662.19
2023-04-22T13:27:44.009Z,99664.19
2023-04-22T13:30:14.343Z,99658.47
2023-04-22T13:32:42.351Z,99652.69
2023-04-22T13:35:11.018Z,99657.25
2023-04-22T13:37:39.337Z,99654.56
2023-04-22T13:40:08.683Z,99651.44
2023-04-22T13:42:36.852Z,99654.94
2023-04-22T13:45:05.296Z,99649.16
2023-04-22T13:47:34.644Z,99655.69
2023-04-22T13:50:03.369Z,99659.28
2023-04-22T13:52:31.328Z,99658.91
2023-04-22T13:54:59.329Z,99654.47
2023-04-22T13:57:27.482Z,99655.28
2023-04-22T13:59:55.407Z,99665.13
2023-04-22T14:02:23.391Z,99659.13
2023-04-22T14:04:52.851Z,99670.28
2023-04-22T14:07:20.829Z,99664.25
2023-04-22T14:09:48.733Z,99661.97
2023-04-22T14:12:16.665Z,99665.97
2023-04-22T14:14:44.746Z,99668.38
2023-04-22T14:17:12.785Z,99673.69
2023-04-22T14:19:41.145Z,99666.25
2023-04-22T14:22:10.737Z,99667.09
2023-04-22T14:24:38.654Z,99671.84
2023-04-22T14:27:06.823Z,99669.22
2023-04-22T14:29:34.774Z,99670.72
2023-04-22T14:32:02.979Z,99677.00
2023-04-22T14:34:30.942Z,99672.53
2023-04-22T14:36:59.481Z,99675.69
2023-04-22T14:39:28.800Z,99671.00
2023-04-22T14:41:57.969Z,99672.56
2023-04-22T14:44:26.040Z,99677.81
2023-04-22T14:46:53.965Z,99681.31
2023-04-22T14:49:21.870Z,99679.16
2023-04-22T14:51:49.829Z,99683.97
2023-04-22T14:54:17.779Z,99682.13
2023-04-22T14:56:47.559Z,99674.50
2023-04-22T14:59:15.524Z,99674.69
2023-04-22T15:01:43.651Z,99676.44
2023-04-22T15:04:13.586Z,99674.59
2023-04-22T15:06:41.664Z,99664.97
2023-04-22T15:09:09.615Z,99675.50
2023-04-22T15:11:37.580Z,99664.19
2023-04-22T15:14:06.866Z,99660.75
2023-04-22T15:16:34.845Z,99666.00
2023-04-22T15:19:02.832Z,99667.91
2023-04-22T15:21:30.790Z,99673.25
2023-04-22T15:23:58.737Z,99665.78
2023-04-22T15:26:26.682Z,99662.97
2023-04-22T15:28:54.638Z,99660.81
2023-04-22T15:31:24.037Z,99662.69
2023-04-22T15:33:52.068Z,99658.63
2023-04-22T15:36:21.659Z,99665.63
2023-04-22T15:38:49.721Z,99662.44
2023-04-22T15:41:17.646Z,99654.44
2023-04-22T15:43:45.700Z,99661.47
2023-04-22T15:46:14.681Z,99672.91
2023-04-22T15:48:47.187Z,99672.41
2023-04-22T15:51:15.207Z,99676.50
2023-04-22T15:53:45.356Z,99678.22
2023-04-22T15:56:13.346Z,99671.66
2023-04-22T15:58:41.334Z,99668.59
2023-04-22T16:01:18.935Z,99681.16
2023-04-22T16:03:49.371Z,99682.72
2023-04-22T16:06:18.120Z,99676.50
2023-04-22T16:08:46.489Z,99673.63
2023-04-22T16:11:15.296Z,99677.03
2023-04-22T16:13:43.247Z,99671.28
2023-04-22T16:16:11.321Z,99681.97
2023-04-22T16:18:39.982Z,99678.44
2023-04-22T16:21:11.380Z,99688.50
2023-04-22T16:23:39.332Z,99682.72
2023-04-22T16:26:07.278Z,99692.16
2023-04-22T16:28:35.262Z,99687.00
2023-04-22T16:31:03.414Z,99686.63
2023-04-22T16:33:31.412Z,99685.22
2023-04-22T16:35:59.724Z,99692.13
2023-04-22T16:38:29.008Z,99687.97
2023-04-22T16:40:56.963Z,99689.22
2023-04-22T16:43:24.939Z,99702.41
2023-04-22T16:45:52.986Z,99704.31
2023-04-22T16:48:20.965Z,99701.00
2023-04-22T16:50:49.016Z,99706.84
2023-04-22T16:53:16.961Z,99701.84
2023-04-22T16:55:46.303Z,99716.00
2023-04-22T16:58:14.272Z,99706.84
2023-04-22T17:00:42.254Z,99715.38
2023-04-22T17:03:12.051Z,99719.47
2023-04-22T17:05:40.285Z,99725.09
2023-04-22T17:08:08.609Z,99729.41
2023-04-22T17:10:41.394Z,99730.44
2023-04-22T17:13:10.756Z,99737.84
2023-04-22T17:15:38.807Z,99732.81
2023-04-22T17:18:07.957Z,99743.53
2023-04-22T17:20:36.011Z,99742.66
2023-04-22T17:23:04.090Z,99738.38
2023-04-22T17:25:32.165Z,99745.34
2023-04-22T17:28:00.158Z,99746.91
2023-04-22T17:30:29.440Z,99748.28
2023-04-22T17:32:57.488Z,99756.72
2023-04-22T17:35:25.508Z,99754.53
2023-04-22T17:37:53.766Z,99754.03
2023-04-22T17:40:22.016Z,99764.34
2023-04-22T17:42:50.017Z,99761.72
2023-04-22T17:45:17.943Z,99761.22
2023-04-22T17:47:48.562Z,99769.63
2023-04-22T17:50:16.639Z,99770.97
2023-04-22T17:52:44.675Z,99770.03
2023-04-22T17:55:12.610Z,99778.25
2023-04-22T17:57:40.909Z,99772.78
2023-04-22T18:00:11.126Z,99776.03
2023-04-22T18:02:39.216Z,99783.16
2023-04-22T18:05:09.364Z,99777.50
2023-04-22T18:07:37.293Z,99785.31
2023-04-22T18:10:05.832Z,99795.63
2023-04-22T18:12:33.766Z,99791.44
2023-04-22T18:15:01.747Z,99795.53
2023-04-22T18:17:29.667Z,99791.38
2023-04-22T18:20:06.331Z,99799.16
2023-04-22T18:22:43.737Z,99802.41
2023-04-22T18:25:11.662Z,99803.13
2023-04-22T18:27:39.644Z,99827.53
2023-04-22T18:30:08.617Z,99829.91
2023-04-22T18:32:37.336Z,99820.47
2023-04-22T18:35:06.135Z,99826.44
2023-04-22T18:37:34.813Z,99830.72
2023-04-22T18:40:05.851Z,99830.47
2023-04-22T18:42:33.763Z,99831.97
2023-04-22T18:45:04.242Z,99823.66
2023-04-22T18:47:32.657Z,99832.34
2023-04-22T18:50:00.956Z,99830.44
2023-04-22T18:52:28.914Z,99825.16
2023-04-22T18:54:56.901Z,99832.28
2023-04-22T18:57:26.553Z,99827.75
2023-04-22T18:59:55.038Z,99821.25
2023-04-22T19:02:23.063Z,99822.09
2023-04-22T19:04:51.249Z,99829.16
2023-04-22T19:07:19.234Z,99827.47
2023-04-22T19:09:47.159Z,99823.28
2023-04-22T19:12:16.729Z,99823.47
2023-04-22T19:14:47.193Z,99817.44
2023-04-22T19:17:15.158Z,99817.81
2023-04-22T19:19:43.506Z,99819.50
2023-04-22T19:22:12.476Z,99816.50
2023-04-22T19:24:40.421Z,99811.94
2023-04-22T19:27:12.488Z,99819.41
2023-04-22T19:29:41.576Z,99814.03
2023-04-22T19:32:11.643Z,99830.56
2023-04-22T19:34:39.650Z,99831.31
2023-04-22T19:37:08.340Z,99826.78
2023-04-22T19:39:36.733Z,99833.69
2023-04-22T19:42:04.835Z,99827.97
2023-04-22T19:44:32.810Z,99828.53
2023-04-22T19:47:00.922Z,99823.47
2023-04-22T19:49:32.486Z,99821.97
2023-04-22T19:52:00.406Z,99822.41
2023-04-22T19:54:28.974Z,99827.09
2023-04-22T19:56:57.997Z,99831.72
2023-04-22T19:59:28.056Z,99816.31
2023-04-22T20:01:56.420Z,99827.66
2023-04-22T20:04:25.219Z,99832.66
2023-04-22T20:06:54.676Z,99833.22
2023-04-22T20:09:22.665Z,99826.34
2023-04-22T20:11:50.612Z,99829.22
2023-04-22T20:14:18.567Z,99830.06
2023-04-22T20:16:47.902Z,99834.16
2023-04-22T20:19:16.217Z,99841.56
2023-04-22T20:21:44.158Z,99845.63
2023-04-22T20:24:19.054Z,99842.66
2023-04-22T20:26:47.897Z,99848.75
2023-04-22T20:29:15.884Z,99838.72
2023-04-22T20:31:44.163Z,99847.53
2023-04-22T20:34:13.132Z,99841.56
2023-04-22T20:36:41.077Z,99843.59
2023-04-22T20:39:10.794Z,99844.16
2023-04-22T20:41:41.015Z,99838.56
2023-04-22T20:44:09.302Z,99841.63
2023-04-22T20:46:37.889Z,99846.69
2023-04-22T20:49:05.919Z,99849.78
2023-04-22T20:51:33.897Z,99851.31
2023-04-22T20:54:01.825Z,99847.78
2023-04-22T20:56:29.814Z,99852.50
2023-04-22T20:58:59.163Z,99854.56
2023-04-22T21:01:27.521Z,99858.09
2023-04-22T21:03:57.714Z,99855.97
2023-04-22T21:06:26.348Z,99854.69
2023-04-22T21:08:54.358Z,99850.72
2023-04-22T21:11:22.782Z,99857.09
2023-04-22T21:13:51.043Z,99853.06
2023-04-22T21:16:20.698Z,99847.56
2023-04-22T21:18:48.695Z,99846.06
2023-04-22T21:21:17.178Z,99851.13
2023-04-22T21:23:45.644Z,99843.41
2023-04-22T21:26:13.601Z,99849.78
2023-04-22T21:28:42.137Z,99847.25
2023-04-22T21:31:11.090Z,99843.94
2023-04-22T21:33:40.452Z,99849.31
2023-04-22T21:36:08.472Z,99846.78
2023-04-22T21:38:36.409Z,99846.63
2023-04-22T21:41:04.338Z,99850.19
2023-04-22T21:43:32.399Z,99850.06
2023-04-22T21:46:01.034Z,99854.31
2023-04-22T21:48:29.045Z,99853.88
2023-04-22T21:50:58.352Z,99854.06
2023-04-22T21:53:26.351Z,99851.84
2023-04-22T21:55:54.297Z,99853.00
2023-04-22T21:58:22.325Z,99859.59
2023-04-22T22:00:50.302Z,99844.84
2023-04-22T22:03:18.322Z,99850.53
2023-04-22T22:05:46.349Z,99850.91
2023-04-22T22:08:15.678Z,99843.53
2023-04-22T22:10:44.014Z,99843.06
2023-04-22T22:13:11.958Z,99844.56
2023-04-22T22:15:39.924Z,99852.75
2023-04-22T22:18:07.900Z,99848.91
2023-04-22T22:20:36.656Z,99846.91
2023-04-22T22:23:04.593Z,99842.38
2023-04-22T22:25:33.890Z,99847.72
2023-04-22T22:28:01.910Z,99844.38
2023-04-22T22:30:30.086Z,99845.91
2023-04-22T22:32:58.078Z,99841.88
2023-04-22T22:35:25.988Z,99844.72
2023-04-22T22:37:53.902Z,99840.34
2023-04-22T22:40:21.921Z,99840.03
2023-04-22T22:42:51.290Z,99845.56
2023-04-22T22:45:19.245Z,99851.44
2023-04-22T22:47:47.232Z,99849.09
2023-04-22T22:50:15.600Z,99840.69
2023-04-22T22:52:43.574Z,99837.69
2023-04-22T22:55:11.929Z,99844.38
2023-04-22T22:57:39.861Z,99840.06
2023-04-22T23:00:11.967Z,99840.53
2023-04-22T23:02:40.000Z,99842.75
2023-04-22T23:05:10.920Z,99837.00
2023-04-22T23:07:39.002Z,99836.53
2023-04-22T23:10:08.298Z,99840.22
2023-04-22T23:12:36.436Z,99839.38
2023-04-22T23:15:04.710Z,99839.69
2023-04-22T23:17:34.101Z,99845.06
2023-04-22T23:20:02.412Z,99836.69
2023-04-22T23:22:30.814Z,99842.22
2023-04-22T23:24:59.226Z,99842.53
2023-04-22T23:27:27.743Z,99844.75
2023-04-22T23:29:56.194Z,99845.06
2023-04-22T23:32:26.552Z,99844.22
2023-04-22T23:34:56.085Z,99845.38
2023-04-22T23:37:24.032Z,99842.69
2023-04-22T23:39:51.995Z,99845.06
2023-04-22T23:42:19.952Z,99843.22
2023-04-22T23:44:47.928Z,99842.69
2023-04-22T23:47:15.867Z,99835.66
2023-04-22T23:49:43.784Z,99847.72
2023-04-22T23:52:14.152Z,99837.50
2023-04-22T23:54:44.686Z,99841.34
2023-04-22T23:57:13.250Z,99841.31
2023-04-22T23:59:41.722Z,99848.34
